sensor_id;sensor_type;location;lat;lon;timestamp;temperature;humidity
18932;DHT22;9598;50.954;3.112;2024-01-30T00:00:20;11.10;99.90
18932;DHT22;9598;50.954;3.112;2024-01-30T00:05:22;11.10;99.90
18932;DHT22;9598;50.954;3.112;2024-01-30T00:10:26;11.10;99.90
18932;DHT22;9598;50.954;3.112;2024-01-30T00:15:28;11.10;99.90
18932;DHT22;9598;50.954;3.112;2024-01-30T00:20:30;11.10;99.90
18932;DHT22;9598;50.954;3.112;2024-01-30T00:25:34;11.20;99.90
18932;DHT22;9598;50.954;3.112;2024-01-30T00:30:36;11.20;99.90
18932;DHT22;9598;50.954;3.112;2024-01-30T00:35:39;11.20;99.90
18932;DHT22;9598;50.954;3.112;2024-01-30T00:40:42;11.10;99.90
18932;DHT22;9598;50.954;3.112;2024-01-30T00:45:45;11.10;99.90
18932;DHT22;9598;50.954;3.112;2024-01-30T00:50:47;11.10;99.90
18932;DHT22;9598;50.954;3.112;2024-01-30T00:55:51;11.10;99.90
18932;DHT22;9598;50.954;3.112;2024-01-30T01:00:53;11.10;99.90
18932;DHT22;9598;50.954;3.112;2024-01-30T01:05:56;11.00;99.90
18932;DHT22;9598;50.954;3.112;2024-01-30T01:11:00;11.00;99.90
18932;DHT22;9598;50.954;3.112;2024-01-30T01:16:04;11.10;99.90
18932;DHT22;9598;50.954;3.112;2024-01-30T01:21:07;11.00;99.90
18932;DHT22;9598;50.954;3.112;2024-01-30T01:26:10;11.00;99.90
18932;DHT22;9598;50.954;3.112;2024-01-30T01:31:13;11.00;99.90
18932;DHT22;9598;50.954;3.112;2024-01-30T01:36:15;10.90;99.90
18932;DHT22;9598;50.954;3.112;2024-01-30T01:41:19;10.90;99.90
18932;DHT22;9598;50.954;3.112;2024-01-30T01:46:22;10.90;99.90
18932;DHT22;9598;50.954;3.112;2024-01-30T01:51:27;10.90;99.90
18932;DHT22;9598;50.954;3.112;2024-01-30T01:56:31;10.90;99.90
18932;DHT22;9598;50.954;3.112;2024-01-30T02:01:36;10.90;99.90
18932;DHT22;9598;50.954;3.112;2024-01-30T02:06:38;10.90;99.90
18932;DHT22;9598;50.954;3.112;2024-01-30T02:11:42;10.80;99.90
18932;DHT22;9598;50.954;3.112;2024-01-30T02:16:45;10.90;99.90
18932;DHT22;9598;50.954;3.112;2024-01-30T02:21:49;10.80;99.90
18932;DHT22;9598;50.954;3.112;2024-01-30T02:26:52;10.80;99.90
18932;DHT22;9598;50.954;3.112;2024-01-30T02:31:54;10.90;99.90
18932;DHT22;9598;50.954;3.112;2024-01-30T02:36:58;10.90;99.90
18932;DHT22;9598;50.954;3.112;2024-01-30T02:42:00;10.90;99.90
18932;DHT22;9598;50.954;3.112;2024-01-30T02:47:02;10.90;99.90
18932;DHT22;9598;50.954;3.112;2024-01-30T02:52:06;10.90;99.90
18932;DHT22;9598;50.954;3.112;2024-01-30T02:57:08;10.90;99.90
18932;DHT22;9598;50.954;3.112;2024-01-30T03:02:10;11.00;99.90
18932;DHT22;9598;50.954;3.112;2024-01-30T03:07:14;11.00;99.90
18932;DHT22;9598;50.954;3.112;2024-01-30T03:12:17;11.00;99.90
18932;DHT22;9598;50.954;3.112;2024-01-30T03:17:19;11.00;99.90
18932;DHT22;9598;50.954;3.112;2024-01-30T03:22:22;11.00;99.90
18932;DHT22;9598;50.954;3.112;2024-01-30T03:27:24;10.90;99.90
18932;DHT22;9598;50.954;3.112;2024-01-30T03:32:27;10.90;99.90
18932;DHT22;9598;50.954;3.112;2024-01-30T03:37:31;11.00;99.90
18932;DHT22;9598;50.954;3.112;2024-01-30T03:42:33;10.90;99.90
18932;DHT22;9598;50.954;3.112;2024-01-30T03:47:35;10.90;99.90
18932;DHT22;9598;50.954;3.112;2024-01-30T03:52:39;10.90;99.90
18932;DHT22;9598;50.954;3.112;2024-01-30T03:57:41;10.90;99.90
18932;DHT22;9598;50.954;3.112;2024-01-30T04:02:43;10.90;99.90
18932;DHT22;9598;50.954;3.112;2024-01-30T04:07:48;10.90;99.90
18932;DHT22;9598;50.954;3.112;2024-01-30T04:12:50;10.90;99.90
18932;DHT22;9598;50.954;3.112;2024-01-30T04:17:53;10.90;99.90
18932;DHT22;9598;50.954;3.112;2024-01-30T04:22:56;10.90;99.90
18932;DHT22;9598;50.954;3.112;2024-01-30T04:27:58;10.90;99.90
18932;DHT22;9598;50.954;3.112;2024-01-30T04:33:01;10.90;99.90
18932;DHT22;9598;50.954;3.112;2024-01-30T04:38:04;10.90;99.90
18932;DHT22;9598;50.954;3.112;2024-01-30T04:43:07;10.90;99.90
18932;DHT22;9598;50.954;3.112;2024-01-30T04:48:09;10.90;99.90
18932;DHT22;9598;50.954;3.112;2024-01-30T04:53:13;11.00;99.90
18932;DHT22;9598;50.954;3.112;2024-01-30T04:58:15;11.00;99.90
18932;DHT22;9598;50.954;3.112;2024-01-30T05:03:17;11.00;99.90
18932;DHT22;9598;50.954;3.112;2024-01-30T05:08:21;11.00;99.90
18932;DHT22;9598;50.954;3.112;2024-01-30T05:13:24;11.00;99.90
18932;DHT22;9598;50.954;3.112;2024-01-30T05:18:26;11.10;99.90
18932;DHT22;9598;50.954;3.112;2024-01-30T05:23:29;11.10;99.90
18932;DHT22;9598;50.954;3.112;2024-01-30T05:28:32;11.10;99.90
18932;DHT22;9598;50.954;3.112;2024-01-30T05:33:35;11.10;99.90
18932;DHT22;9598;50.954;3.112;2024-01-30T05:38:38;11.10;99.90
18932;DHT22;9598;50.954;3.112;2024-01-30T05:43:43;11.10;99.90
18932;DHT22;9598;50.954;3.112;2024-01-30T05:48:45;11.10;99.90
18932;DHT22;9598;50.954;3.112;2024-01-30T05:53:49;11.10;99.90
18932;DHT22;9598;50.954;3.112;2024-01-30T05:58:51;11.20;99.90
18932;DHT22;9598;50.954;3.112;2024-01-30T06:03:53;11.10;99.90
18932;DHT22;9598;50.954;3.112;2024-01-30T06:08:57;11.10;99.90
18932;DHT22;9598;50.954;3.112;2024-01-30T06:13:59;11.10;99.90
18932;DHT22;9598;50.954;3.112;2024-01-30T06:19:01;11.10;99.90
18932;DHT22;9598;50.954;3.112;2024-01-30T06:24:05;11.20;99.90
18932;DHT22;9598;50.954;3.112;2024-01-30T06:29:08;11.20;99.90
18932;DHT22;9598;50.954;3.112;2024-01-30T06:34:10;11.10;99.90
18932;DHT22;9598;50.954;3.112;2024-01-30T06:39:14;11.20;99.90
18932;DHT22;9598;50.954;3.112;2024-01-30T06:44:16;11.20;99.90
18932;DHT22;9598;50.954;3.112;2024-01-30T06:49:18;11.20;99.90
18932;DHT22;9598;50.954;3.112;2024-01-30T06:54:24;11.20;99.90
18932;DHT22;9598;50.954;3.112;2024-01-30T06:59:26;11.20;99.90
18932;DHT22;9598;50.954;3.112;2024-01-30T07:04:28;11.30;99.90
18932;DHT22;9598;50.954;3.112;2024-01-30T07:09:34;11.20;99.90
18932;DHT22;9598;50.954;3.112;2024-01-30T07:14:37;11.30;99.90
18932;DHT22;9598;50.954;3.112;2024-01-30T07:19:39;11.30;99.90
18932;DHT22;9598;50.954;3.112;2024-01-30T07:24:44;11.30;99.90
18932;DHT22;9598;50.954;3.112;2024-01-30T07:29:49;11.40;99.90
18932;DHT22;9598;50.954;3.112;2024-01-30T07:34:51;11.30;99.90
18932;DHT22;9598;50.954;3.112;2024-01-30T07:39:55;11.30;99.90
18932;DHT22;9598;50.954;3.112;2024-01-30T07:44:57;11.40;99.90
18932;DHT22;9598;50.954;3.112;2024-01-30T07:49:59;11.30;99.90
18932;DHT22;9598;50.954;3.112;2024-01-30T07:55:07;11.40;99.90
18932;DHT22;9598;50.954;3.112;2024-01-30T08:00:10;11.30;99.90
18932;DHT22;9598;50.954;3.112;2024-01-30T08:05:13;11.30;99.90
18932;DHT22;9598;50.954;3.112;2024-01-30T08:10:17;11.40;99.90
18932;DHT22;9598;50.954;3.112;2024-01-30T08:15:20;11.40;99.90
18932;DHT22;9598;50.954;3.112;2024-01-30T08:20:23;11.40;99.90
18932;DHT22;9598;50.954;3.112;2024-01-30T08:25:27;11.40;99.90
18932;DHT22;9598;50.954;3.112;2024-01-30T08:30:29;11.40;99.90
18932;DHT22;9598;50.954;3.112;2024-01-30T08:35:32;11.30;99.90
18932;DHT22;9598;50.954;3.112;2024-01-30T08:40:36;11.20;99.90
18932;DHT22;9598;50.954;3.112;2024-01-30T08:45:38;11.20;99.90
18932;DHT22;9598;50.954;3.112;2024-01-30T08:50:40;11.20;99.90
18932;DHT22;9598;50.954;3.112;2024-01-30T08:55:44;11.10;99.90
18932;DHT22;9598;50.954;3.112;2024-01-30T09:00:46;11.10;99.90
18932;DHT22;9598;50.954;3.112;2024-01-30T09:05:48;11.00;99.90
18932;DHT22;9598;50.954;3.112;2024-01-30T09:10:52;10.90;99.90
18932;DHT22;9598;50.954;3.112;2024-01-30T09:15:55;10.90;99.90
18932;DHT22;9598;50.954;3.112;2024-01-30T09:20:58;10.80;99.90
18932;DHT22;9598;50.954;3.112;2024-01-30T09:26:01;10.80;99.90
18932;DHT22;9598;50.954;3.112;2024-01-30T09:31:04;10.80;99.90
18932;DHT22;9598;50.954;3.112;2024-01-30T09:36:08;10.80;99.90
18932;DHT22;9598;50.954;3.112;2024-01-30T09:41:11;10.70;99.90
18932;DHT22;9598;50.954;3.112;2024-01-30T09:46:15;10.70;99.90
18932;DHT22;9598;50.954;3.112;2024-01-30T09:51:19;10.80;99.90
18932;DHT22;9598;50.954;3.112;2024-01-30T09:56:24;10.80;99.90
18932;DHT22;9598;50.954;3.112;2024-01-30T10:01:26;10.80;99.90
18932;DHT22;9598;50.954;3.112;2024-01-30T10:06:28;10.80;99.90
18932;DHT22;9598;50.954;3.112;2024-01-30T10:11:32;10.90;99.90
18932;DHT22;9598;50.954;3.112;2024-01-30T10:16:35;10.90;99.90
18932;DHT22;9598;50.954;3.112;2024-01-30T10:21:37;10.90;99.90
18932;DHT22;9598;50.954;3.112;2024-01-30T10:26:43;11.00;99.90
18932;DHT22;9598;50.954;3.112;2024-01-30T10:31:45;11.00;99.90
18932;DHT22;9598;50.954;3.112;2024-01-30T10:36:50;11.00;99.90
18932;DHT22;9598;50.954;3.112;2024-01-30T10:41:56;11.00;99.90
18932;DHT22;9598;50.954;3.112;2024-01-30T10:47:06;10.90;99.90
18932;DHT22;9598;50.954;3.112;2024-01-30T10:52:10;11.00;99.90
18932;DHT22;9598;50.954;3.112;2024-01-30T10:57:16;11.00;99.90
18932;DHT22;9598;50.954;3.112;2024-01-30T11:02:19;11.00;99.90
18932;DHT22;9598;50.954;3.112;2024-01-30T11:07:25;11.00;99.90
18932;DHT22;9598;50.954;3.112;2024-01-30T11:12:30;10.90;99.90
18932;DHT22;9598;50.954;3.112;2024-01-30T11:17:41;10.90;99.90
18932;DHT22;9598;50.954;3.112;2024-01-30T11:22:46;10.90;99.90
18932;DHT22;9598;50.954;3.112;2024-01-30T11:27:51;10.90;99.90
18932;DHT22;9598;50.954;3.112;2024-01-30T11:33:01;10.80;99.90
18932;DHT22;9598;50.954;3.112;2024-01-30T11:38:06;10.70;99.90
18932;DHT22;9598;50.954;3.112;2024-01-30T11:43:10;10.70;99.90
18932;DHT22;9598;50.954;3.112;2024-01-30T11:48:13;10.60;99.90
18932;DHT22;9598;50.954;3.112;2024-01-30T11:53:15;10.60;99.90
18932;DHT22;9598;50.954;3.112;2024-01-30T11:58:19;10.60;99.90
18932;DHT22;9598;50.954;3.112;2024-01-30T12:03:22;10.50;99.90
18932;DHT22;9598;50.954;3.112;2024-01-30T12:08:24;10.60;99.90
18932;DHT22;9598;50.954;3.112;2024-01-30T12:13:30;10.50;99.90
18932;DHT22;9598;50.954;3.112;2024-01-30T12:18:32;10.40;99.90
18932;DHT22;9598;50.954;3.112;2024-01-30T12:23:35;10.40;99.90
18932;DHT22;9598;50.954;3.112;2024-01-30T12:28:47;10.40;99.90
18932;DHT22;9598;50.954;3.112;2024-01-30T12:33:49;10.40;99.90
18932;DHT22;9598;50.954;3.112;2024-01-30T12:38:52;10.40;99.90
18932;DHT22;9598;50.954;3.112;2024-01-30T12:43:57;10.40;99.90
18932;DHT22;9598;50.954;3.112;2024-01-30T12:48:59;10.40;99.90
18932;DHT22;9598;50.954;3.112;2024-01-30T12:54:05;10.40;99.90
18932;DHT22;9598;50.954;3.112;2024-01-30T12:59:08;10.40;99.90
18932;DHT22;9598;50.954;3.112;2024-01-30T13:04:11;10.40;99.90
18932;DHT22;9598;50.954;3.112;2024-01-30T13:09:13;10.40;99.90
18932;DHT22;9598;50.954;3.112;2024-01-30T13:14:17;10.40;99.90
18932;DHT22;9598;50.954;3.112;2024-01-30T13:19:19;10.40;99.90
18932;DHT22;9598;50.954;3.112;2024-01-30T13:24:22;10.40;99.90
18932;DHT22;9598;50.954;3.112;2024-01-30T13:29:26;10.40;99.90
18932;DHT22;9598;50.954;3.112;2024-01-30T13:34:28;10.40;99.90
18932;DHT22;9598;50.954;3.112;2024-01-30T13:39:30;10.40;99.90
18932;DHT22;9598;50.954;3.112;2024-01-30T13:44:34;10.40;99.90
18932;DHT22;9598;50.954;3.112;2024-01-30T13:49:37;10.40;99.90
18932;DHT22;9598;50.954;3.112;2024-01-30T13:54:39;10.30;99.90
18932;DHT22;9598;50.954;3.112;2024-01-30T13:59:42;10.30;99.90
18932;DHT22;9598;50.954;3.112;2024-01-30T14:04:44;10.30;99.90
18932;DHT22;9598;50.954;3.112;2024-01-30T14:09:48;10.30;99.90
18932;DHT22;9598;50.954;3.112;2024-01-30T14:14:52;10.30;99.90
18932;DHT22;9598;50.954;3.112;2024-01-30T14:19:54;10.20;99.90
18932;DHT22;9598;50.954;3.112;2024-01-30T14:24:57;10.10;99.90
18932;DHT22;9598;50.954;3.112;2024-01-30T14:30:04;10.10;99.90
18932;DHT22;9598;50.954;3.112;2024-01-30T14:35:06;10.00;99.90
18932;DHT22;9598;50.954;3.112;2024-01-30T14:40:09;10.10;99.90
18932;DHT22;9598;50.954;3.112;2024-01-30T14:45:13;10.00;99.90
18932;DHT22;9598;50.954;3.112;2024-01-30T14:50:16;10.10;99.90
18932;DHT22;9598;50.954;3.112;2024-01-30T14:55:19;10.00;99.90
18932;DHT22;9598;50.954;3.112;2024-01-30T15:00:22;10.00;99.90
18932;DHT22;9598;50.954;3.112;2024-01-30T15:05:24;10.00;99.90
18932;DHT22;9598;50.954;3.112;2024-01-30T15:10:27;10.00;99.90
18932;DHT22;9598;50.954;3.112;2024-01-30T15:15:30;10.00;99.90
18932;DHT22;9598;50.954;3.112;2024-01-30T15:20:32;9.90;99.90
18932;DHT22;9598;50.954;3.112;2024-01-30T15:25:34;9.90;99.90
18932;DHT22;9598;50.954;3.112;2024-01-30T15:30:38;9.80;99.90
18932;DHT22;9598;50.954;3.112;2024-01-30T15:35:41;9.90;99.90
18932;DHT22;9598;50.954;3.112;2024-01-30T15:40:43;9.90;99.90
18932;DHT22;9598;50.954;3.112;2024-01-30T15:45:46;9.90;99.90
18932;DHT22;9598;50.954;3.112;2024-01-30T15:50:49;9.80;99.90
18932;DHT22;9598;50.954;3.112;2024-01-30T15:55:51;9.80;99.90
18932;DHT22;9598;50.954;3.112;2024-01-30T16:00:55;9.80;99.90
18932;DHT22;9598;50.954;3.112;2024-01-30T16:05:57;9.80;99.90
18932;DHT22;9598;50.954;3.112;2024-01-30T16:10:59;9.80;99.90
18932;DHT22;9598;50.954;3.112;2024-01-30T16:16:04;9.90;99.90
18932;DHT22;9598;50.954;3.112;2024-01-30T16:21:07;9.80;99.90
18932;DHT22;9598;50.954;3.112;2024-01-30T16:26:09;9.80;99.90
18932;DHT22;9598;50.954;3.112;2024-01-30T16:31:13;9.70;99.90
18932;DHT22;9598;50.954;3.112;2024-01-30T16:36:20;9.70;99.90
18932;DHT22;9598;50.954;3.112;2024-01-30T16:41:23;9.70;99.90
18932;DHT22;9598;50.954;3.112;2024-01-30T16:46:26;9.70;99.90
18932;DHT22;9598;50.954;3.112;2024-01-30T16:51:29;9.70;99.90
18932;DHT22;9598;50.954;3.112;2024-01-30T16:56:31;9.70;99.90
18932;DHT22;9598;50.954;3.112;2024-01-30T17:01:35;9.70;99.90
18932;DHT22;9598;50.954;3.112;2024-01-30T17:06:37;9.70;99.90
18932;DHT22;9598;50.954;3.112;2024-01-30T17:11:40;9.60;99.90
18932;DHT22;9598;50.954;3.112;2024-01-30T17:16:43;9.70;99.90
18932;DHT22;9598;50.954;3.112;2024-01-30T17:21:46;9.60;99.90
18932;DHT22;9598;50.954;3.112;2024-01-30T17:26:49;9.60;99.90
18932;DHT22;9598;50.954;3.112;2024-01-30T17:31:53;9.60;99.90
18932;DHT22;9598;50.954;3.112;2024-01-30T17:36:55;9.60;99.90
18932;DHT22;9598;50.954;3.112;2024-01-30T17:41:58;9.60;99.90
18932;DHT22;9598;50.954;3.112;2024-01-30T17:47:01;9.50;99.90
18932;DHT22;9598;50.954;3.112;2024-01-30T17:52:05;9.60;99.90
18932;DHT22;9598;50.954;3.112;2024-01-30T17:57:08;9.50;99.90
18932;DHT22;9598;50.954;3.112;2024-01-30T18:02:11;9.50;99.90
18932;DHT22;9598;50.954;3.112;2024-01-30T18:07:14;9.50;99.90
18932;DHT22;9598;50.954;3.112;2024-01-30T18:12:16;9.60;99.90
18932;DHT22;9598;50.954;3.112;2024-01-30T18:17:20;9.60;99.90
18932;DHT22;9598;50.954;3.112;2024-01-30T18:22:23;9.60;99.90
18932;DHT22;9598;50.954;3.112;2024-01-30T18:27:25;9.60;99.90
18932;DHT22;9598;50.954;3.112;2024-01-30T18:32:30;9.60;99.90
18932;DHT22;9598;50.954;3.112;2024-01-30T18:37:32;9.70;99.90
18932;DHT22;9598;50.954;3.112;2024-01-30T18:42:36;9.70;99.90
18932;DHT22;9598;50.954;3.112;2024-01-30T18:47:40;9.70;99.90
18932;DHT22;9598;50.954;3.112;2024-01-30T18:52:42;9.70;99.90
18932;DHT22;9598;50.954;3.112;2024-01-30T18:57:46;9.60;99.90
18932;DHT22;9598;50.954;3.112;2024-01-30T19:02:50;9.60;99.90
18932;DHT22;9598;50.954;3.112;2024-01-30T19:07:52;9.70;99.90
18932;DHT22;9598;50.954;3.112;2024-01-30T19:12:55;9.70;99.90
18932;DHT22;9598;50.954;3.112;2024-01-30T19:17:58;9.70;99.90
18932;DHT22;9598;50.954;3.112;2024-01-30T19:23:01;9.80;99.90
18932;DHT22;9598;50.954;3.112;2024-01-30T19:28:04;9.80;99.90
18932;DHT22;9598;50.954;3.112;2024-01-30T19:33:09;9.80;99.90
18932;DHT22;9598;50.954;3.112;2024-01-30T19:38:11;9.80;99.90
18932;DHT22;9598;50.954;3.112;2024-01-30T19:43:15;9.80;99.90
18932;DHT22;9598;50.954;3.112;2024-01-30T19:48:18;9.80;99.90
18932;DHT22;9598;50.954;3.112;2024-01-30T19:53:21;9.70;99.90
18932;DHT22;9598;50.954;3.112;2024-01-30T19:58:24;9.70;99.90
18932;DHT22;9598;50.954;3.112;2024-01-30T20:03:27;9.70;99.90
18932;DHT22;9598;50.954;3.112;2024-01-30T20:08:30;9.70;99.90
18932;DHT22;9598;50.954;3.112;2024-01-30T20:13:35;9.70;99.90
18932;DHT22;9598;50.954;3.112;2024-01-30T20:18:42;9.60;99.90
18932;DHT22;9598;50.954;3.112;2024-01-30T20:23:44;9.60;99.90
18932;DHT22;9598;50.954;3.112;2024-01-30T20:28:48;9.60;99.90
18932;DHT22;9598;50.954;3.112;2024-01-30T20:33:55;9.60;99.90
18932;DHT22;9598;50.954;3.112;2024-01-30T20:38:59;9.50;99.90
18932;DHT22;9598;50.954;3.112;2024-01-30T20:44:01;9.50;99.90
18932;DHT22;9598;50.954;3.112;2024-01-30T20:49:04;9.50;99.90
18932;DHT22;9598;50.954;3.112;2024-01-30T20:54:07;9.50;99.90
18932;DHT22;9598;50.954;3.112;2024-01-30T20:59:09;9.50;99.90
18932;DHT22;9598;50.954;3.112;2024-01-30T21:04:15;9.50;99.90
18932;DHT22;9598;50.954;3.112;2024-01-30T21:09:17;9.50;99.90
18932;DHT22;9598;50.954;3.112;2024-01-30T21:14:19;9.50;99.90
18932;DHT22;9598;50.954;3.112;2024-01-30T21:19:24;9.50;99.90
18932;DHT22;9598;50.954;3.112;2024-01-30T21:24:26;9.50;99.90
18932;DHT22;9598;50.954;3.112;2024-01-30T21:29:28;9.50;99.90
18932;DHT22;9598;50.954;3.112;2024-01-30T21:34:32;9.50;99.90
18932;DHT22;9598;50.954;3.112;2024-01-30T21:39:35;9.50;99.90
18932;DHT22;9598;50.954;3.112;2024-01-30T21:44:39;9.50;99.90
18932;DHT22;9598;50.954;3.112;2024-01-30T21:49:43;9.50;99.90
18932;DHT22;9598;50.954;3.112;2024-01-30T21:54:46;9.50;99.90
18932;DHT22;9598;50.954;3.112;2024-01-30T21:59:48;9.40;99.90
18932;DHT22;9598;50.954;3.112;2024-01-30T22:04:52;9.40;99.90
18932;DHT22;9598;50.954;3.112;2024-01-30T22:09:54;9.40;99.90
18932;DHT22;9598;50.954;3.112;2024-01-30T22:14:56;9.40;99.90
18932;DHT22;9598;50.954;3.112;2024-01-30T22:20:00;9.40;99.90
18932;DHT22;9598;50.954;3.112;2024-01-30T22:25:02;9.40;99.90
18932;DHT22;9598;50.954;3.112;2024-01-30T22:30:07;9.40;99.90
18932;DHT22;9598;50.954;3.112;2024-01-30T22:35:10;9.40;99.90
18932;DHT22;9598;50.954;3.112;2024-01-30T22:40:14;9.40;99.90
18932;DHT22;9598;50.954;3.112;2024-01-30T22:45:16;9.30;99.90
18932;DHT22;9598;50.954;3.112;2024-01-30T22:50:20;9.30;99.90
18932;DHT22;9598;50.954;3.112;2024-01-30T22:55:23;9.30;99.90
18932;DHT22;9598;50.954;3.112;2024-01-30T23:00:26;9.30;99.90
18932;DHT22;9598;50.954;3.112;2024-01-30T23:05:30;9.40;99.90
18932;DHT22;9598;50.954;3.112;2024-01-30T23:10:34;9.40;99.90
18932;DHT22;9598;50.954;3.112;2024-01-30T23:15:36;9.40;99.90
18932;DHT22;9598;50.954;3.112;2024-01-30T23:20:39;9.40;99.90
18932;DHT22;9598;50.954;3.112;2024-01-30T23:25:41;9.40;99.90
18932;DHT22;9598;50.954;3.112;2024-01-30T23:30:43;9.40;99.90
18932;DHT22;9598;50.954;3.112;2024-01-30T23:35:47;9.40;99.90
18932;DHT22;9598;50.954;3.112;2024-01-30T23:40:50;9.30;99.90
18932;DHT22;9598;50.954;3.112;2024-01-30T23:45:52;9.30;99.90
18932;DHT22;9598;50.954;3.112;2024-01-30T23:50:56;9.30;99.90
18932;DHT22;9598;50.954;3.112;2024-01-30T23:55:58;9.30;99.90
